Ryoho Maru No.2 — JD2964 — position and weather

sailwx.info

Track history (hours):
 
Tides and Currents Weather Stations Pressure Air Temp Water Temp Dewpoint Dewpoint Depression Visibility Wind Speed Wind Dir Waves Ship Positions

Ryoho Maru No.2

Last reported at 2014-Aug-25 16:23 UTC. Time now 2014-Aug-30 02:29 UTC.
Position N 36°10' E 141°01'.

Length 57 m; draft 4 m.

Type: Tanker. MMSI: 431001062.

Date/timePositionNaut miles runAvg speedWind from/ knotsBaromVisibWave heightAir tempDewpointWater temp
2014-Aug-25 16:23N 36°10' E 141°01'8 9.4
2014-Aug-25 15:33N 36°02' E 140°60'10 9.6
2014-Aug-25 14:31N 35°53' E 140°57'10 9.9
2014-Aug-25 13:33N 35°43' E 140°55'1010.1
2014-Aug-25 12:31N 35°34' E 140°49'2010.1
2014-Aug-25 10:33N 35°19' E 140°33'1010.3
2014-Aug-25 09:33N 35°10' E 140°26'1110.6
2014-Aug-25 08:29N 35°04' E 140°15'9 9.8
2014-Aug-25 07:31N 34°58' E 140°05'17 8.8
2014-Aug-25 05:33N 34°55' E 139°44'1010.0
2014-Aug-25 04:33N 35°05' E 139°44'1010.4
2014-Aug-25 03:33N 35°15' E 139°46'9 9.2
2014-Aug-25 02:34N 35°24' E 139°43'8 7.8
2014-Aug-25 01:34N 35°32' E 139°45'0 0.0
2014-Aug-25 00:33N 35°32' E 139°45'2 1.7
2014-Aug-24 23:34N 35°30' E 139°47'3 2.6
2014-Aug-24 22:31N 35°30' E 139°50'0 0.0
2014-Aug-24 21:31N 35°30' E 139°50'0 0.0
2014-Aug-24 20:31N 35°30' E 139°50'0 0.0
2014-Aug-24 19:31N 35°30' E 139°50'0 0.1
2014-Aug-24 18:31N 35°30' E 139°50'0 0.0
2014-Aug-24 17:31N 35°30' E 139°50'0 0.0
2014-Aug-24 16:25N 35°30' E 139°50'0 0.0
2014-Aug-24 15:28N 35°30' E 139°50'0 0.0
2014-Aug-24 14:31N 35°30' E 139°50'0 0.1
2014-Aug-24 13:31N 35°30' E 139°50'0 0.0
2014-Aug-24 12:31N 35°30' E 139°50'0 0.0
2014-Aug-24 11:31N 35°30' E 139°50'0 0.0
2014-Aug-24 10:31N 35°30' E 139°50'0 0.0
2014-Aug-24 09:31N 35°30' E 139°50'0 0.0
2014-Aug-24 08:31N 35°30' E 139°50'0 0.0
2014-Aug-24 07:31N 35°30' E 139°50'0 0.0
2014-Aug-24 06:31N 35°30' E 139°50'0 0.0
2014-Aug-24 05:31N 35°30' E 139°50'0 0.0
2014-Aug-24 04:31N 35°30' E 139°50'0 0.0
2014-Aug-24 03:31N 35°30' E 139°50'0 0.1
2014-Aug-24 02:31N 35°30' E 139°50'2 1.7
2014-Aug-24 01:33N 35°30' E 139°52'8 7.5
2014-Aug-24 00:33N 35°28' E 140°01'0 0.0
2014-Aug-23 23:33N 35°28' E 140°01'1 1.4
2014-Aug-23 22:33N 35°29' E 139°60'1 0.9
2014-Aug-23 21:31N 35°29' E 139°59'0 0.0
2014-Aug-23 20:31N 35°29' E 139°59'0 0.0
2014-Aug-23 19:25N 35°29' E 139°59'0 0.0
2014-Aug-23 03:31N 35°29' E 139°59'6 5.8
2014-Aug-23 02:34N 35°28' E 139°52'1110.9
2014-Aug-23 01:34N 35°19' E 139°44'1010.2
2014-Aug-23 00:33N 35°09' E 139°47'1010.3
2014-Aug-22 23:33N 35°02' E 139°39'1111.1
2014-Aug-22 22:33N 34°55' E 139°28'  
2014-Aug-18 19:33N 34°50' E 139°25'9 9.1
2014-Aug-18 18:33N 34°51' E 139°36'10 9.4
2014-Aug-18 17:32N 34°52' E 139°47'9 9.1
2014-Aug-18 16:33N 34°53' E 139°58'9 9.2
2014-Aug-18 15:32N 34°59' E 140°07'2310.1
2014-Aug-18 13:16N 35°14' E 140°29'1010.6
2014-Aug-18 12:19N 35°22' E 140°36'810.7
2014-Aug-18 11:32N 35°28' E 140°42'1110.6
2014-Aug-18 10:33N 35°37' E 140°50'  
Track history (hours):
 
Tides and Currents Weather Stations Pressure Air Temp Water Temp Dewpoint Dewpoint Depression Visibility Wind Speed Wind Dir Waves Ship Positions

Ryoho Maru No.2

Last reported at 2014-Aug-25 16:23 UTC. Time now 2014-Aug-30 02:29 UTC.
Position N 36°10' E 141°01'.

Length 57 m; draft 4 m.

Type: Tanker. MMSI: 431001062.

Date/timePositionNaut miles runAvg speedWind from/ knotsBaromVisibWave heightAir tempDewpointWater temp
2014-Aug-25 16:23N 36°10' E 141°01'8 9.4
2014-Aug-25 15:33N 36°02' E 140°60'10 9.6
2014-Aug-25 14:31N 35°53' E 140°57'10 9.9
2014-Aug-25 13:33N 35°43' E 140°55'1010.1
2014-Aug-25 12:31N 35°34' E 140°49'2010.1
2014-Aug-25 10:33N 35°19' E 140°33'1010.3
2014-Aug-25 09:33N 35°10' E 140°26'1110.6
2014-Aug-25 08:29N 35°04' E 140°15'9 9.8
2014-Aug-25 07:31N 34°58' E 140°05'17 8.8
2014-Aug-25 05:33N 34°55' E 139°44'1010.0
2014-Aug-25 04:33N 35°05' E 139°44'1010.4
2014-Aug-25 03:33N 35°15' E 139°46'9 9.2
2014-Aug-25 02:34N 35°24' E 139°43'8 7.8
2014-Aug-25 01:34N 35°32' E 139°45'0 0.0
2014-Aug-25 00:33N 35°32' E 139°45'2 1.7
2014-Aug-24 23:34N 35°30' E 139°47'3 2.6
2014-Aug-24 22:31N 35°30' E 139°50'0 0.0
2014-Aug-24 21:31N 35°30' E 139°50'0 0.0
2014-Aug-24 20:31N 35°30' E 139°50'0 0.0
2014-Aug-24 19:31N 35°30' E 139°50'0 0.1
2014-Aug-24 18:31N 35°30' E 139°50'0 0.0
2014-Aug-24 17:31N 35°30' E 139°50'0 0.0
2014-Aug-24 16:25N 35°30' E 139°50'0 0.0
2014-Aug-24 15:28N 35°30' E 139°50'0 0.0
2014-Aug-24 14:31N 35°30' E 139°50'0 0.1
2014-Aug-24 13:31N 35°30' E 139°50'0 0.0
2014-Aug-24 12:31N 35°30' E 139°50'0 0.0
2014-Aug-24 11:31N 35°30' E 139°50'0 0.0
2014-Aug-24 10:31N 35°30' E 139°50'0 0.0
2014-Aug-24 09:31N 35°30' E 139°50'0 0.0
2014-Aug-24 08:31N 35°30' E 139°50'0 0.0
2014-Aug-24 07:31N 35°30' E 139°50'0 0.0
2014-Aug-24 06:31N 35°30' E 139°50'0 0.0
2014-Aug-24 05:31N 35°30' E 139°50'0 0.0
2014-Aug-24 04:31N 35°30' E 139°50'0 0.0
2014-Aug-24 03:31N 35°30' E 139°50'0 0.1
2014-Aug-24 02:31N 35°30' E 139°50'2 1.7
2014-Aug-24 01:33N 35°30' E 139°52'8 7.5
2014-Aug-24 00:33N 35°28' E 140°01'0 0.0
2014-Aug-23 23:33N 35°28' E 140°01'1 1.4
2014-Aug-23 22:33N 35°29' E 139°60'1 0.9
2014-Aug-23 21:31N 35°29' E 139°59'0 0.0
2014-Aug-23 20:31N 35°29' E 139°59'0 0.0
2014-Aug-23 19:25N 35°29' E 139°59'0 0.0
2014-Aug-23 03:31N 35°29' E 139°59'6 5.8
2014-Aug-23 02:34N 35°28' E 139°52'1110.9
2014-Aug-23 01:34N 35°19' E 139°44'1010.2
2014-Aug-23 00:33N 35°09' E 139°47'1010.3
2014-Aug-22 23:33N 35°02' E 139°39'1111.1
2014-Aug-22 22:33N 34°55' E 139°28'  
2014-Aug-18 19:33N 34°50' E 139°25'9 9.1
2014-Aug-18 18:33N 34°51' E 139°36'10 9.4
2014-Aug-18 17:32N 34°52' E 139°47'9 9.1
2014-Aug-18 16:33N 34°53' E 139°58'9 9.2
2014-Aug-18 15:32N 34°59' E 140°07'2310.1
2014-Aug-18 13:16N 35°14' E 140°29'1010.6
2014-Aug-18 12:19N 35°22' E 140°36'810.7
2014-Aug-18 11:32N 35°28' E 140°42'1110.6
2014-Aug-18 10:33N 35°37' E 140°50'  

Dump ship's entire track history